createdAt,value
2023-03-21T00:00:02.017Z,1016.2
2023-03-21T00:01:02.058Z,1016.2
2023-03-21T00:02:01.766Z,1016.2
2023-03-21T00:03:02.762Z,1016.2
2023-03-21T00:04:02.902Z,1016.2
2023-03-21T00:05:16.559Z,1016.2
2023-03-21T00:06:02.349Z,1016.2
2023-03-21T00:07:02.411Z,1016.1
2023-03-21T00:08:03.341Z,1016.2
2023-03-21T00:09:02.099Z,1016.2
2023-03-21T00:10:37.435Z,1016.1
2023-03-21T00:11:02.391Z,1016.1
2023-03-21T00:12:02.169Z,1016.1
2023-03-21T00:13:02.198Z,1016.1
2023-03-21T00:14:02.476Z,1016.1
2023-03-21T00:15:02.624Z,1016.1
2023-03-21T00:16:33.014Z,1016.1
2023-03-21T00:17:02.864Z,1016.1
2023-03-21T00:18:02.921Z,1016.1
2023-03-21T00:19:02.739Z,1016.1
2023-03-21T00:20:02.800Z,1016.1
2023-03-21T00:22:09.491Z,1016
2023-03-21T00:23:02.334Z,1016.1
2023-03-21T00:24:02.294Z,1016.1
2023-03-21T00:25:02.132Z,1016
2023-03-21T00:26:02.151Z,1016
2023-03-21T00:28:01.370Z,1016.1
2023-03-21T00:28:09.198Z,1016.1
2023-03-21T00:29:02.075Z,1016
2023-03-21T00:30:01.943Z,1016.1
2023-03-21T00:31:01.956Z,1016
2023-03-21T00:32:01.860Z,1016
2023-03-21T00:33:22.860Z,1016
2023-03-21T00:34:01.766Z,1016.1
2023-03-21T00:36:05.349Z,1016.1
2023-03-21T00:36:06.887Z,1016.1
2023-03-21T00:37:01.810Z,1016
2023-03-21T00:38:01.842Z,1016.1
2023-03-21T00:39:02.814Z,1016
2023-03-21T00:40:02.984Z,1016.1
2023-03-21T00:41:31.606Z,1016
2023-03-21T00:42:01.952Z,1016.1
2023-03-21T00:43:01.980Z,1016.1
2023-03-21T00:44:01.865Z,1016
2023-03-21T00:45:01.862Z,1016
2023-03-21T00:46:01.713Z,1016
2023-03-21T00:47:08.590Z,1016
2023-03-21T00:48:02.761Z,1016
2023-03-21T00:49:02.664Z,1016.1
2023-03-21T00:50:02.617Z,1016
2023-03-21T00:51:02.717Z,1016.1
2023-03-21T00:52:30.772Z,1016
2023-03-21T00:53:02.174Z,1016
2023-03-21T00:54:01.999Z,1016
2023-03-21T00:55:01.875Z,1016.1
2023-03-21T00:56:01.856Z,1016
2023-03-21T00:57:02.792Z,1016.1
2023-03-21T00:58:03.382Z,1016.1
2023-03-21T00:59:02.147Z,1016
2023-03-21T01:00:02.550Z,1016.1
2023-03-21T01:01:02.704Z,1016.1
2023-03-21T01:02:02.423Z,1016.1
2023-03-21T01:03:25.420Z,1016.1
2023-03-21T01:04:02.454Z,1016.2
2023-03-21T01:05:02.280Z,1016.1
2023-03-21T01:06:02.300Z,1016.1
2023-03-21T01:07:02.339Z,1016.1
2023-03-21T01:08:28.156Z,1016.1
2023-03-21T01:09:01.716Z,1016.1
2023-03-21T01:10:02.811Z,1016.1
2023-03-21T01:11:02.708Z,1016.1
2023-03-21T01:12:02.779Z,1016.1
2023-03-21T01:13:02.690Z,1016.1
2023-03-21T01:14:23.998Z,1016.1
2023-03-21T01:15:01.818Z,1016
2023-03-21T01:16:01.987Z,1016
2023-03-21T01:17:02.072Z,1016.1
2023-03-21T01:18:02.105Z,1016
2023-03-21T01:19:18.424Z,1016
2023-03-21T01:20:01.960Z,1016
2023-03-21T01:21:01.995Z,1016
2023-03-21T01:22:01.907Z,1016
2023-03-21T01:23:01.874Z,1016
2023-03-21T01:24:01.925Z,1016
2023-03-21T01:25:36.309Z,1016
2023-03-21T01:26:02.095Z,1016
2023-03-21T01:27:02.143Z,1016
2023-03-21T01:28:01.962Z,1016
2023-03-21T01:29:02.021Z,1016
2023-03-21T01:30:19.014Z,1016
2023-03-21T01:31:02.247Z,1016
2023-03-21T01:32:01.825Z,1016
2023-03-21T01:33:02.050Z,1016
2023-03-21T01:34:01.796Z,1016
2023-03-21T01:35:02.269Z,1016
2023-03-21T01:36:14.913Z,1016
2023-03-21T01:37:01.938Z,1016
2023-03-21T01:38:01.866Z,1016
2023-03-21T01:39:02.793Z,1016
2023-03-21T01:40:02.778Z,1016
2023-03-21T01:41:20.175Z,1015.9
2023-03-21T01:42:02.092Z,1015.9
2023-03-21T01:43:02.119Z,1016
2023-03-21T01:44:01.967Z,1015.9
2023-03-21T01:45:02.025Z,1015.9
2023-03-21T01:46:02.297Z,1015.9
2023-03-21T01:47:13.177Z,1015.9
2023-03-21T01:48:01.998Z,1015.9
2023-03-21T01:49:01.995Z,1015.9
2023-03-21T01:50:01.837Z,1015.9
2023-03-21T01:51:01.824Z,1015.9
2023-03-21T01:52:33.776Z,1015.9
2023-03-21T01:53:02.257Z,1016
2023-03-21T01:54:02.321Z,1015.9
2023-03-21T01:55:02.289Z,1015.9
2023-03-21T01:56:02.095Z,1015.9
2023-03-21T01:57:02.186Z,1016
2023-03-21T01:58:07.811Z,1015.9
2023-03-21T01:59:02.583Z,1015.9
2023-03-21T02:00:02.681Z,1015.9
2023-03-21T02:01:02.826Z,1015.9
2023-03-21T02:02:01.953Z,1015.9
2023-03-21T02:03:33.519Z,1015.9
2023-03-21T02:04:01.981Z,1015.9
2023-03-21T02:05:01.861Z,1015.8
2023-03-21T02:06:01.752Z,1015.8
2023-03-21T02:07:02.793Z,1015.8
2023-03-21T02:08:02.687Z,1015.8
2023-03-21T02:09:02.768Z,1015.8
2023-03-21T02:10:02.667Z,1015.8
2023-03-21T02:11:02.766Z,1015.9
2023-03-21T02:12:02.679Z,1015.8
2023-03-21T02:13:02.767Z,1015.8
2023-03-21T02:14:08.899Z,1015.8
2023-03-21T02:15:02.702Z,1015.8
2023-03-21T02:16:02.792Z,1015.8
2023-03-21T02:17:02.635Z,1015.8
2023-03-21T02:18:02.498Z,1015.7
2023-03-21T02:19:02.507Z,1015.8
2023-03-21T02:20:02.401Z,1015.8
2023-03-21T02:21:02.817Z,1015.7
2023-03-21T02:22:02.583Z,1015.8
2023-03-21T02:23:02.661Z,1015.8
2023-03-21T02:24:02.571Z,1015.7
2023-03-21T02:25:22.363Z,1015.7
2023-03-21T02:26:02.632Z,1015.8
2023-03-21T02:27:05.234Z,1015.8
2023-03-21T02:28:02.010Z,1015.7
2023-03-21T02:29:02.063Z,1015.7
2023-03-21T02:30:01.958Z,1015.7
2023-03-21T02:31:02.350Z,1015.7
2023-03-21T02:32:37.623Z,1015.7
2023-03-21T02:33:01.839Z,1015.7
2023-03-21T02:34:01.910Z,1015.7
2023-03-21T02:35:01.786Z,1015.7
2023-03-21T02:36:15.179Z,1015.8
2023-03-21T02:37:01.991Z,1015.8
2023-03-21T02:38:02.026Z,1015.8
2023-03-21T02:39:01.940Z,1015.8
2023-03-21T02:40:01.999Z,1015.8
2023-03-21T02:41:18.087Z,1015.8
2023-03-21T02:42:02.524Z,1015.8
2023-03-21T02:43:09.264Z,1015.8
2023-03-21T02:44:01.820Z,1015.8
2023-03-21T02:45:01.908Z,1015.8
2023-03-21T02:46:01.889Z,1015.8
2023-03-21T02:47:07.272Z,1015.8
2023-03-21T02:48:02.238Z,1015.8
2023-03-21T02:49:02.261Z,1015.8
2023-03-21T02:50:02.056Z,1015.9
2023-03-21T02:51:02.116Z,1015.8
2023-03-21T02:52:37.670Z,1015.8
2023-03-21T02:53:02.251Z,1015.9
2023-03-21T02:54:47.437Z,1015.9
2023-03-21T02:55:02.731Z,1015.9
2023-03-21T02:56:02.625Z,1015.9
2023-03-21T02:57:02.695Z,1015.9
2023-03-21T02:58:13.941Z,1015.9
2023-03-21T02:59:02.695Z,1015.8
2023-03-21T03:00:17.921Z,1015.9
2023-03-21T03:01:01.759Z,1015.9
2023-03-21T03:02:02.571Z,1015.8
2023-03-21T03:03:28.232Z,1015.8
2023-03-21T03:04:01.966Z,1015.8
2023-03-21T03:05:21.475Z,1015.9
2023-03-21T03:06:02.597Z,1015.8
2023-03-21T03:07:02.458Z,1015.8
2023-03-21T03:08:02.511Z,1015.8
2023-03-21T03:09:03.679Z,1015.8
2023-03-21T03:10:02.473Z,1015.8
2023-03-21T03:11:02.518Z,1015.8
2023-03-21T03:12:02.470Z,1015.8
2023-03-21T03:13:02.315Z,1015.7
2023-03-21T03:14:56.304Z,1015.7
2023-03-21T03:15:04.883Z,1015.8
2023-03-21T03:16:02.845Z,1015.8
2023-03-21T03:17:01.909Z,1015.8
2023-03-21T03:18:01.862Z,1015.8
2023-03-21T03:19:01.996Z,1015.8
2023-03-21T03:20:17.662Z,1015.8
2023-03-21T03:21:02.452Z,1015.8
2023-03-21T03:22:02.471Z,1015.8
2023-03-21T03:23:02.480Z,1015.8
2023-03-21T03:24:02.356Z,1015.8
2023-03-21T03:25:32.557Z,1015.8
2023-03-21T03:26:01.821Z,1015.8
2023-03-21T03:27:01.798Z,1015.8
2023-03-21T03:28:02.831Z,1015.8
2023-03-21T03:29:02.667Z,1015.7
2023-03-21T03:30:02.821Z,1015.7
2023-03-21T03:31:11.323Z,1015.7
2023-03-21T03:32:02.513Z,1015.7
2023-03-21T03:33:02.454Z,1015.7
2023-03-21T03:34:02.434Z,1015.7
2023-03-21T03:35:02.233Z,1015.7
2023-03-21T03:36:12.710Z,1015.7
2023-03-21T03:37:02.680Z,1015.7
2023-03-21T03:38:02.521Z,1015.7
2023-03-21T03:39:02.610Z,1015.7
2023-03-21T03:40:02.463Z,1015.7
2023-03-21T03:41:02.550Z,1015.7
2023-03-21T03:42:29.044Z,1015.8
2023-03-21T03:43:01.914Z,1015.8
2023-03-21T03:44:01.942Z,1015.7
2023-03-21T03:45:01.851Z,1015.8
2023-03-21T03:46:01.820Z,1015.8
2023-03-21T03:47:01.760Z,1015.8
2023-03-21T03:48:02.044Z,1015.8
2023-03-21T03:49:01.800Z,1015.8
2023-03-21T03:50:01.896Z,1015.8
2023-03-21T03:51:02.761Z,1015.8
2023-03-21T03:52:02.722Z,1015.8
2023-03-21T03:53:18.797Z,1015.7
2023-03-21T03:54:02.669Z,1015.7
2023-03-21T03:55:02.720Z,1015.8
2023-03-21T03:56:02.609Z,1015.7
2023-03-21T03:57:02.755Z,1015.8
2023-03-21T03:58:23.085Z,1015.7
2023-03-21T03:59:02.486Z,1015.8
2023-03-21T04:00:03.093Z,1015.8
2023-03-21T04:01:01.909Z,1015.8
2023-03-21T04:02:02.551Z,1015.8
2023-03-21T04:03:03.051Z,1015.8
2023-03-21T04:04:14.185Z,1015.8
2023-03-21T04:05:02.003Z,1015.7
2023-03-21T04:06:02.000Z,1015.8
2023-03-21T04:07:01.896Z,1015.8
2023-03-21T04:08:01.948Z,1015.8
2023-03-21T04:09:20.890Z,1015.7
2023-03-21T04:10:01.901Z,1015.8
2023-03-21T04:11:01.989Z,1015.8
2023-03-21T04:12:01.825Z,1015.8
2023-03-21T04:13:01.922Z,1015.8
2023-03-21T04:14:01.782Z,1015.8
2023-03-21T04:15:11.637Z,1015.7
2023-03-21T04:16:02.567Z,1015.8
2023-03-21T04:17:01.801Z,1015.8
2023-03-21T04:18:01.901Z,1015.7
2023-03-21T04:19:01.740Z,1015.8
2023-03-21T04:20:34.038Z,1015.8
2023-03-21T04:21:01.762Z,1015.8
2023-03-21T04:22:01.845Z,1015.8
2023-03-21T04:23:02.782Z,1015.8
2023-03-21T04:24:02.719Z,1015.8
2023-03-21T04:25:02.733Z,1015.8
2023-03-21T04:26:02.692Z,1015.7
2023-03-21T04:27:02.675Z,1015.8
2023-03-21T04:28:02.754Z,1015.8
2023-03-21T04:29:02.675Z,1015.7
2023-03-21T04:30:02.632Z,1015.8
2023-03-21T04:31:26.111Z,1015.8
2023-03-21T04:32:02.667Z,1015.8
2023-03-21T04:33:02.551Z,1015.8
2023-03-21T04:34:02.506Z,1015.8
2023-03-21T04:35:02.382Z,1015.8
2023-03-21T04:36:02.491Z,1015.8
2023-03-21T04:37:02.381Z,1015.8
2023-03-21T04:38:02.245Z,1015.8
2023-03-21T04:39:02.300Z,1015.7
2023-03-21T04:40:02.479Z,1015.7
2023-03-21T04:41:02.444Z,1015.7
2023-03-21T04:42:02.585Z,1015.7
2023-03-21T04:43:02.523Z,1015.7
2023-03-21T04:44:02.389Z,1015.7
2023-03-21T04:45:02.412Z,1015.8
2023-03-21T04:46:02.536Z,1015.8
2023-03-21T04:47:02.433Z,1015.7
2023-03-21T04:48:02.730Z,1015.7
2023-03-21T04:49:02.594Z,1015.7
2023-03-21T04:50:02.458Z,1015.7
2023-03-21T04:51:02.528Z,1015.7
2023-03-21T04:52:02.469Z,1015.7
2023-03-21T04:53:02.396Z,1015.7
2023-03-21T04:54:02.420Z,1015.7
2023-03-21T04:55:02.405Z,1015.7
2023-03-21T04:56:02.239Z,1015.7
2023-03-21T04:57:02.325Z,1015.7
2023-03-21T04:58:02.216Z,1015.7
2023-03-21T04:59:02.274Z,1015.7
2023-03-21T05:00:03.047Z,1015.7
2023-03-21T05:01:02.005Z,1015.7
2023-03-21T05:02:02.098Z,1015.7
2023-03-21T05:03:02.198Z,1015.7
2023-03-21T05:04:02.591Z,1015.7
2023-03-21T05:05:02.436Z,1015.7
2023-03-21T05:06:02.516Z,1015.7
2023-03-21T05:07:02.462Z,1015.7
2023-03-21T05:08:02.294Z,1015.7
2023-03-21T05:09:02.326Z,1015.7
2023-03-21T05:10:03.167Z,1015.8
2023-03-21T05:11:01.917Z,1015.8
2023-03-21T05:12:01.957Z,1015.8
2023-03-21T05:13:01.865Z,1015.8
2023-03-21T05:14:01.843Z,1015.8
2023-03-21T05:15:01.720Z,1015.8
2023-03-21T05:16:02.778Z,1015.8
2023-03-21T05:17:02.581Z,1015.8
2023-03-21T05:18:02.478Z,1015.8
2023-03-21T05:19:02.495Z,1015.8
2023-03-21T05:20:02.404Z,1015.9
2023-03-21T05:21:02.436Z,1015.9
2023-03-21T05:22:02.399Z,1015.8
2023-03-21T05:23:02.289Z,1015.8
2023-03-21T05:24:02.334Z,1015.9
2023-03-21T05:25:02.315Z,1015.8
2023-03-21T05:26:02.270Z,1015.9
2023-03-21T05:27:02.291Z,1015.9
2023-03-21T05:28:02.130Z,1015.9
2023-03-21T05:29:01.879Z,1015.9
2023-03-21T05:30:01.713Z,1015.9
2023-03-21T05:31:02.894Z,1015.9
2023-03-21T05:32:02.649Z,1015.9
2023-03-21T05:33:02.762Z,1015.9
2023-03-21T05:34:02.624Z,1015.9
2023-03-21T05:35:02.781Z,1016
2023-03-21T05:36:02.761Z,1015.9
2023-03-21T05:37:02.693Z,1015.9
2023-03-21T05:38:02.589Z,1015.9
2023-03-21T05:39:02.655Z,1015.9
2023-03-21T05:40:02.563Z,1015.9
2023-03-21T05:41:02.672Z,1015.9
2023-03-21T05:42:02.579Z,1016
2023-03-21T05:43:02.601Z,1015.9
2023-03-21T05:44:02.471Z,1015.9
2023-03-21T05:45:02.504Z,1016
2023-03-21T05:46:02.774Z,1015.9
2023-03-21T05:47:02.299Z,1016
2023-03-21T05:48:02.577Z,1015.9
2023-03-21T05:49:02.483Z,1016
2023-03-21T05:50:02.402Z,1016
2023-03-21T05:51:02.367Z,1016
2023-03-21T05:52:02.348Z,1016
2023-03-21T05:53:02.203Z,1016
2023-03-21T05:54:02.306Z,1016
2023-03-21T05:55:02.252Z,1016
2023-03-21T05:56:02.153Z,1016
2023-03-21T05:57:02.186Z,1016
2023-03-21T05:58:02.026Z,1016
2023-03-21T05:59:02.067Z,1015.9
2023-03-21T06:00:02.699Z,1016
2023-03-21T06:01:02.668Z,1016
2023-03-21T06:02:01.819Z,1015.9
2023-03-21T06:03:02.135Z,1015.9
2023-03-21T06:04:02.153Z,1016
2023-03-21T06:05:01.987Z,1015.9
2023-03-21T06:06:01.858Z,1015.9
2023-03-21T06:07:01.883Z,1016
2023-03-21T06:08:01.737Z,1016
2023-03-21T06:09:02.717Z,1015.9
2023-03-21T06:10:02.671Z,1016
2023-03-21T06:11:02.730Z,1016
2023-03-21T06:12:02.630Z,1016
2023-03-21T06:13:02.666Z,1016
2023-03-21T06:14:02.517Z,1016
2023-03-21T06:15:02.529Z,1016
2023-03-21T06:16:02.735Z,1016
2023-03-21T06:17:02.341Z,1016
2023-03-21T06:18:02.395Z,1016
2023-03-21T06:19:02.384Z,1016
2023-03-21T06:20:02.184Z,1016
2023-03-21T06:21:02.432Z,1016
2023-03-21T06:22:02.320Z,1016.1
2023-03-21T06:23:02.126Z,1016
2023-03-21T06:24:02.161Z,1016.1
2023-03-21T06:25:02.065Z,1016.1
2023-03-21T06:26:01.949Z,1016.1
2023-03-21T06:27:04.434Z,1016.1
2023-03-21T06:28:02.241Z,1016.1
2023-03-21T06:29:02.290Z,1016.1
2023-03-21T06:30:02.102Z,1016.1
2023-03-21T06:31:02.343Z,1016
2023-03-21T06:32:02.078Z,1016.1
2023-03-21T06:33:02.150Z,1016.1
2023-03-21T06:34:01.994Z,1016.1
2023-03-21T06:35:02.043Z,1016.1
2023-03-21T06:36:02.122Z,1016.2
2023-03-21T06:37:01.972Z,1016.1
2023-03-21T06:38:01.848Z,1016.2
2023-03-21T06:39:01.890Z,1016.2
2023-03-21T06:40:01.886Z,1016.1
2023-03-21T06:41:02.812Z,1016.2
2023-03-21T06:42:02.672Z,1016.2
2023-03-21T06:43:02.760Z,1016.2
2023-03-21T06:44:02.664Z,1016.3
2023-03-21T06:45:02.736Z,1016.3
2023-03-21T06:46:02.736Z,1016.2
2023-03-21T06:47:02.952Z,1016.2
2023-03-21T06:48:02.003Z,1016.2
2023-03-21T06:49:01.764Z,1016.2
2023-03-21T06:50:02.835Z,1016.3
2023-03-21T06:51:02.690Z,1016.3
2023-03-21T06:52:02.680Z,1016.2
2023-03-21T06:53:02.569Z,1016.2
2023-03-21T06:54:02.664Z,1016.2
2023-03-21T06:55:02.552Z,1016.2
2023-03-21T06:56:02.571Z,1016.3
2023-03-21T06:57:02.445Z,1016.3
2023-03-21T06:58:02.479Z,1016.3
2023-03-21T06:59:02.465Z,1016.3
2023-03-21T07:00:02.311Z,1016.3
2023-03-21T07:01:02.414Z,1016.3
2023-03-21T07:02:01.958Z,1016.3
2023-03-21T07:03:02.442Z,1016.3
2023-03-21T07:04:02.337Z,1016.3
2023-03-21T07:05:02.209Z,1016.3
2023-03-21T07:06:02.195Z,1016.4
2023-03-21T07:07:02.116Z,1016.3
2023-03-21T07:08:02.102Z,1016.4
2023-03-21T07:09:02.002Z,1016.4
2023-03-21T07:10:01.991Z,1016.4
2023-03-21T07:11:01.834Z,1016.4
2023-03-21T07:12:02.036Z,1016.4
2023-03-21T07:13:01.819Z,1016.4
2023-03-21T07:14:01.868Z,1016.4
2023-03-21T07:15:02.840Z,1016.4
2023-03-21T07:16:03.007Z,1016.4
2023-03-21T07:17:01.778Z,1016.4
2023-03-21T07:18:02.818Z,1016.4
2023-03-21T07:19:02.698Z,1016.4
2023-03-21T07:20:02.715Z,1016.4
2023-03-21T07:21:02.677Z,1016.4
2023-03-21T07:22:02.603Z,1016.4
2023-03-21T07:23:02.516Z,1016.5
2023-03-21T07:24:02.558Z,1016.4
2023-03-21T07:25:06.146Z,1016.4
2023-03-21T07:26:02.013Z,1016.5
2023-03-21T07:27:02.044Z,1016.4
2023-03-21T07:28:01.848Z,1016.5
2023-03-21T07:29:01.874Z,1016.4
2023-03-21T07:30:01.726Z,1016.4
2023-03-21T07:31:02.852Z,1016.5
2023-03-21T07:32:02.739Z,1016.4
2023-03-21T07:33:02.585Z,1016.5
2023-03-21T07:34:02.559Z,1016.5
2023-03-21T07:35:02.660Z,1016.5
2023-03-21T07:36:02.893Z,1016.4
2023-03-21T07:37:02.753Z,1016.5
2023-03-21T07:38:02.861Z,1016.4
2023-03-21T07:39:02.804Z,1016.5
2023-03-21T07:40:01.734Z,1016.4
2023-03-21T07:41:02.856Z,1016.4
2023-03-21T07:42:02.707Z,1016.5
2023-03-21T07:44:02.719Z,1016.5
2023-03-21T07:45:02.867Z,1016.5
2023-03-21T07:46:01.878Z,1016.4
2023-03-21T07:47:02.173Z,1016.4
2023-03-21T07:48:02.404Z,1016.4
2023-03-21T07:49:02.284Z,1016.5
2023-03-21T07:50:02.196Z,1016.4
2023-03-21T07:51:02.224Z,1016.4
2023-03-21T07:52:05.409Z,1016.5
2023-03-21T07:53:02.151Z,1016.5
2023-03-21T07:54:02.162Z,1016.5
2023-03-21T07:55:02.065Z,1016.5
2023-03-21T07:56:01.994Z,1016.5
2023-03-21T07:57:01.886Z,1016.5
2023-03-21T07:58:01.924Z,1016.5
2023-03-21T07:59:01.776Z,1016.5
2023-03-21T08:00:02.186Z,1016.5
2023-03-21T08:01:01.976Z,1016.5
2023-03-21T08:02:02.725Z,1016.5
2023-03-21T08:03:03.000Z,1016.5
2023-03-21T08:04:01.866Z,1016.5
2023-03-21T08:05:01.897Z,1016.5
2023-03-21T08:06:01.817Z,1016.6
2023-03-21T08:07:02.794Z,1016.6
2023-03-21T08:08:02.677Z,1016.6
2023-03-21T08:09:02.751Z,1016.5
2023-03-21T08:10:02.603Z,1016.6
2023-03-21T08:11:02.727Z,1016.6
2023-03-21T08:12:02.661Z,1016.6
2023-03-21T08:13:02.780Z,1016.5
2023-03-21T08:14:02.675Z,1016.6
2023-03-21T08:15:02.762Z,1016.5
2023-03-21T08:16:02.656Z,1016.6
2023-03-21T08:17:02.953Z,1016.5
2023-03-21T08:18:01.768Z,1016.6
2023-03-21T08:19:02.834Z,1016.6
2023-03-21T08:20:02.672Z,1016.6
2023-03-21T08:21:02.730Z,1016.6
2023-03-21T08:22:02.615Z,1016.6
2023-03-21T08:23:02.684Z,1016.6
2023-03-21T08:24:02.538Z,1016.6
2023-03-21T08:25:02.558Z,1016.6
2023-03-21T08:26:02.466Z,1016.6
2023-03-21T08:27:02.594Z,1016.5
2023-03-21T08:28:02.518Z,1016.6
2023-03-21T08:29:02.392Z,1016.6
2023-03-21T08:30:02.474Z,1016.6
2023-03-21T08:31:02.724Z,1016.6
2023-03-21T08:32:02.273Z,1016.6
2023-03-21T08:33:02.608Z,1016.6
2023-03-21T08:34:02.435Z,1016.6
2023-03-21T08:35:02.384Z,1016.6
2023-03-21T08:36:02.641Z,1016.7
2023-03-21T08:37:02.486Z,1016.7
2023-03-21T08:38:02.324Z,1016.6
2023-03-21T08:39:02.432Z,1016.6
2023-03-21T08:40:02.729Z,1016.6
2023-03-21T08:41:02.536Z,1016.7
2023-03-21T08:42:02.652Z,1016.7
2023-03-21T08:43:02.488Z,1016.7
2023-03-21T08:44:02.550Z,1016.6
2023-03-21T08:45:02.554Z,1016.6
2023-03-21T08:46:02.507Z,1016.6
2023-03-21T08:47:01.834Z,1016.7
2023-03-21T08:48:02.181Z,1016.6
2023-03-21T08:49:01.949Z,1016.7
2023-03-21T08:50:01.970Z,1016.7
2023-03-21T08:51:01.882Z,1016.7
2023-03-21T08:52:01.934Z,1016.7
2023-03-21T08:53:01.783Z,1016.6
2023-03-21T08:54:01.766Z,1016.7
2023-03-21T08:55:02.826Z,1016.7
2023-03-21T08:56:02.638Z,1016.7
2023-03-21T08:57:02.691Z,1016.7
2023-03-21T08:58:02.605Z,1016.7
2023-03-21T08:59:02.678Z,1016.7
2023-03-21T09:00:02.533Z,1016.7
2023-03-21T09:01:02.565Z,1016.7
2023-03-21T09:02:02.712Z,1016.7
2023-03-21T09:03:02.485Z,1016.7
2023-03-21T09:04:02.589Z,1016.7
2023-03-21T09:05:02.856Z,1016.8
2023-03-21T09:06:02.649Z,1016.7
2023-03-21T09:07:02.706Z,1016.8
2023-03-21T09:08:02.574Z,1016.8
2023-03-21T09:09:02.578Z,1016.7
2023-03-21T09:10:23.020Z,1016.7
2023-03-21T09:11:01.883Z,1016.8
2023-03-21T09:12:01.956Z,1016.8
2023-03-21T09:13:01.801Z,1016.8
2023-03-21T09:14:01.778Z,1016.9
2023-03-21T09:15:02.747Z,1016.8
2023-03-21T09:16:02.968Z,1016.8
2023-03-21T09:17:02.738Z,1016.9
2023-03-21T09:18:02.743Z,1016.8
2023-03-21T09:19:02.661Z,1016.9
2023-03-21T09:20:02.740Z,1016.9
2023-03-21T09:21:02.594Z,1016.8
2023-03-21T09:22:02.652Z,1016.8
2023-03-21T09:23:02.586Z,1016.9
2023-03-21T09:24:02.526Z,1016.9
2023-03-21T09:25:02.444Z,1016.9
2023-03-21T09:26:02.334Z,1016.9
2023-03-21T09:27:02.338Z,1016.9
2023-03-21T09:28:02.367Z,1016.9
2023-03-21T09:29:02.201Z,1016.9
2023-03-21T09:30:02.218Z,1016.9
2023-03-21T09:31:02.314Z,1016.9
2023-03-21T09:32:02.144Z,1016.9
2023-03-21T09:33:02.183Z,1016.9
2023-03-21T09:34:02.098Z,1016.9
2023-03-21T09:35:02.071Z,1016.9
2023-03-21T09:36:02.185Z,1016.9
2023-03-21T09:37:02.167Z,1016.9
2023-03-21T09:38:01.934Z,1016.9
2023-03-21T09:39:02.011Z,1016.9
2023-03-21T09:40:01.860Z,1016.9
2023-03-21T09:41:01.858Z,1016.9
2023-03-21T09:42:01.754Z,1016.9
2023-03-21T09:43:02.790Z,1017
2023-03-21T09:44:02.706Z,1017
2023-03-21T09:45:02.717Z,1016.9
2023-03-21T09:46:02.627Z,1017
2023-03-21T09:47:02.648Z,1017
2023-03-21T09:48:02.677Z,1017
2023-03-21T09:49:02.601Z,1017
2023-03-21T09:50:15.682Z,1017.1
2023-03-21T09:51:02.452Z,1017.1
2023-03-21T09:52:02.520Z,1017.1
2023-03-21T09:53:02.418Z,1017
2023-03-21T09:54:02.274Z,1017
2023-03-21T09:55:02.266Z,1017
2023-03-21T09:56:02.272Z,1017
2023-03-21T09:57:02.138Z,1017
2023-03-21T09:58:02.112Z,1017
2023-03-21T09:59:02.042Z,1017
2023-03-21T10:00:02.038Z,1017
2023-03-21T10:01:02.082Z,1016.9
2023-03-21T10:02:02.188Z,1017
2023-03-21T10:03:02.189Z,1017
2023-03-21T10:04:02.358Z,1017
2023-03-21T10:05:02.135Z,1016.9
2023-03-21T10:06:02.229Z,1017
2023-03-21T10:07:02.078Z,1016.9
2023-03-21T10:08:02.094Z,1017
2023-03-21T10:09:01.925Z,1016.9
2023-03-21T10:10:01.942Z,1017
2023-03-21T10:11:01.810Z,1017
2023-03-21T10:12:01.853Z,1017
2023-03-21T10:13:02.832Z,1017
2023-03-21T10:14:02.674Z,1017
2023-03-21T10:15:02.726Z,1017
2023-03-21T10:16:02.712Z,1017
2023-03-21T10:17:01.812Z,1016.9
2023-03-21T10:18:01.835Z,1017
2023-03-21T10:19:02.767Z,1017
2023-03-21T10:20:02.659Z,1017
2023-03-21T10:21:02.787Z,1017
2023-03-21T10:22:04.809Z,1017
2023-03-21T10:23:02.607Z,1016.9
2023-03-21T10:24:02.607Z,1016.9
2023-03-21T10:25:02.503Z,1017
2023-03-21T10:26:02.883Z,1017
2023-03-21T10:27:02.993Z,1017
2023-03-21T10:28:01.783Z,1017
2023-03-21T10:29:02.954Z,1017
2023-03-21T10:30:01.744Z,1017
2023-03-21T10:31:02.774Z,1017
2023-03-21T10:32:02.643Z,1017
2023-03-21T10:33:02.980Z,1017
2023-03-21T10:34:01.726Z,1017
2023-03-21T10:35:02.813Z,1017
2023-03-21T10:36:02.961Z,1016.9
2023-03-21T10:37:01.849Z,1017
2023-03-21T10:38:02.814Z,1017
2023-03-21T10:39:02.667Z,1017
2023-03-21T10:40:02.836Z,1017
2023-03-21T10:41:02.666Z,1017
2023-03-21T10:42:02.647Z,1017
2023-03-21T10:43:02.501Z,1017
2023-03-21T10:44:02.569Z,1017
2023-03-21T10:45:02.546Z,1017
2023-03-21T10:46:02.881Z,1017
2023-03-21T10:47:02.678Z,1017
2023-03-21T10:48:03.506Z,1017
2023-03-21T10:49:02.585Z,1017
2023-03-21T10:50:11.639Z,1017
2023-03-21T10:51:02.668Z,1017
2023-03-21T10:52:02.510Z,1017
2023-03-21T10:53:02.551Z,1017
2023-03-21T10:54:02.486Z,1017
2023-03-21T10:55:02.315Z,1017
2023-03-21T10:56:02.376Z,1017
2023-03-21T10:57:02.329Z,1017
2023-03-21T10:58:02.176Z,1017
2023-03-21T10:59:02.196Z,1016.9
2023-03-21T11:00:02.961Z,1016.9
2023-03-21T11:01:02.069Z,1016.9
2023-03-21T11:02:02.280Z,1016.9
2023-03-21T11:03:02.193Z,1016.9
2023-03-21T11:04:01.992Z,1016.9
2023-03-21T11:05:02.048Z,1016.9
2023-03-21T11:06:01.898Z,1016.9
2023-03-21T11:07:01.972Z,1016.9
2023-03-21T11:08:01.904Z,1016.9
2023-03-21T11:09:01.847Z,1016.9
2023-03-21T11:10:02.835Z,1016.9
2023-03-21T11:11:02.688Z,1016.9
2023-03-21T11:12:02.788Z,1016.9
2023-03-21T11:13:02.671Z,1017
2023-03-21T11:14:02.662Z,1016.9
2023-03-21T11:15:02.569Z,1016.9
2023-03-21T11:16:02.618Z,1016.9
2023-03-21T11:17:02.799Z,1016.8
2023-03-21T11:18:02.708Z,1016.9
2023-03-21T11:19:02.629Z,1016.9
2023-03-21T11:20:02.695Z,1016.9
2023-03-21T11:21:02.531Z,1016.8
2023-03-21T11:22:02.574Z,1016.9
2023-03-21T11:23:02.531Z,1016.9
2023-03-21T11:24:02.378Z,1016.9
2023-03-21T11:25:02.408Z,1016.9
2023-03-21T11:26:02.391Z,1016.9
2023-03-21T11:27:02.218Z,1016.9
2023-03-21T11:28:02.224Z,1016.9
2023-03-21T11:29:02.095Z,1016.9
2023-03-21T11:30:02.228Z,1016.9
2023-03-21T11:31:02.408Z,1016.9
2023-03-21T11:32:02.196Z,1016.9
2023-03-21T11:33:02.211Z,1016.9
2023-03-21T11:34:02.074Z,1016.8
2023-03-21T11:35:02.159Z,1016.9
2023-03-21T11:36:02.470Z,1016.9
2023-03-21T11:37:02.273Z,1016.8
2023-03-21T11:38:02.315Z,1016.8
2023-03-21T11:39:02.261Z,1016.8
2023-03-21T11:40:02.098Z,1016.8
2023-03-21T11:41:02.127Z,1016.8
2023-03-21T11:42:02.026Z,1016.8
2023-03-21T11:43:02.045Z,1016.8
2023-03-21T11:44:01.911Z,1016.8
2023-03-21T11:45:01.926Z,1016.8
2023-03-21T11:46:02.018Z,1016.8
2023-03-21T11:47:01.982Z,1016.8
2023-03-21T11:48:02.264Z,1016.8
2023-03-21T11:49:02.063Z,1016.8
2023-03-21T11:50:05.906Z,1016.8
2023-03-21T11:51:02.755Z,1016.8
2023-03-21T11:52:02.581Z,1016.8
2023-03-21T11:53:02.645Z,1016.8
2023-03-21T11:54:02.570Z,1016.7
2023-03-21T11:55:02.667Z,1016.8
2023-03-21T11:56:02.484Z,1016.8
2023-03-21T11:57:02.522Z,1016.8
2023-03-21T11:58:15.362Z,1016.8
2023-03-21T11:59:02.301Z,1016.8
2023-03-21T12:00:02.672Z,1016.7
2023-03-21T12:01:02.584Z,1016.8
2023-03-21T12:02:02.115Z,1016.7
2023-03-21T12:03:02.367Z,1016.7
2023-03-21T12:04:02.516Z,1016.7
2023-03-21T12:05:02.260Z,1016.7
2023-03-21T12:06:02.341Z,1016.7
2023-03-21T12:07:02.267Z,1016.7
2023-03-21T12:08:02.146Z,1016.7
2023-03-21T12:09:02.242Z,1016.7
2023-03-21T12:10:02.082Z,1016.7
2023-03-21T12:11:02.057Z,1016.6
2023-03-21T12:12:01.889Z,1016.7
2023-03-21T12:13:01.920Z,1016.7
2023-03-21T12:14:01.750Z,1016.6
2023-03-21T12:15:01.782Z,1016.6
2023-03-21T12:16:02.828Z,1016.7
2023-03-21T12:17:02.324Z,1016.6
2023-03-21T12:18:02.400Z,1016.6
2023-03-21T12:19:02.352Z,1016.6
2023-03-21T12:20:02.282Z,1016.7
2023-03-21T12:21:02.168Z,1016.6
2023-03-21T12:22:02.045Z,1016.7
2023-03-21T12:23:02.369Z,1016.6
2023-03-21T12:24:02.135Z,1016.6
2023-03-21T12:25:02.176Z,1016.6
2023-03-21T12:26:01.979Z,1016.6
2023-03-21T12:27:01.954Z,1016.6
2023-03-21T12:28:03.506Z,1016.7
2023-03-21T12:29:02.220Z,1016.6
2023-03-21T12:30:02.288Z,1016.7
2023-03-21T12:31:02.350Z,1016.6
2023-03-21T12:32:02.036Z,1016.6
2023-03-21T12:33:02.086Z,1016.5
2023-03-21T12:34:01.923Z,1016.6
2023-03-21T12:35:01.914Z,1016.6
2023-03-21T12:36:01.944Z,1016.6
2023-03-21T12:37:01.791Z,1016.5
2023-03-21T12:38:02.770Z,1016.6
2023-03-21T12:39:02.663Z,1016.5